Chadstone Weather > Observations for 04/03/21

Select Day:



Observations
Time Temp Hum DP Wind Gust Dir Rain >9am Press
C % C kph kph mm hPa
00:00 14.6 76 10.4 0.6 6.1 S 0.0 1003.6
00:10 15.0 76 10.8 1.2 6.1 S 0.0 1003.7
00:20 15.1 77 11.1 0.8 5.0 SW 0.0 1003.6
00:30 15.2 77 11.2 0.1 2.5 SSW 0.0 1003.4
00:40 15.2 78 11.4 0.6 3.6 SW 0.0 1003.6
00:50 15.2 78 11.4 2.9 12.2 S 0.0 1003.3
01:00 15.2 77 11.2 1.8 13.3 SSW 0.0 1003.3
01:10 15.2 76 11.0 1.1 9.7 WSW 0.0 1003.1
01:20 15.2 76 11.0 0.2 5.0 SW 0.0 1003.1
01:30 15.2 76 11.0 2.2 6.1 SW 0.0 1002.9
01:40 15.3 76 11.1 0.8 6.1 W 0.0 1002.9
01:50 15.3 76 11.1 0.3 5.0 W 0.0 1002.9
02:00 15.3 76 11.1 2.5 12.2 WSW 0.0 1002.8
02:10 15.4 76 11.2 2.4 8.6 WNW 0.0 1002.7
02:20 15.4 77 11.4 1.4 7.2 WSW 0.0 1002.5
02:30 15.4 77 11.4 0.5 5.0 W 0.0 1002.4
02:40 15.3 77 11.3 1.0 5.0 WSW 0.0 1002.3
02:50 15.3 76 11.1 0.5 7.2 SW 0.0 1002.1
03:00 15.3 76 11.1 2.1 6.1 SW 0.0 1002.1
03:10 15.4 76 11.2 2.8 6.1 WNW 0.0 1002.0
03:20 15.4 77 11.4 0.6 5.0 W 0.0 1001.7
03:30 15.4 77 11.4 0.4 3.6 SSW 0.0 1001.8
03:40 15.4 77 11.4 0.9 7.2 W 0.0 1001.4
03:50 15.4 77 11.4 0.4 3.6 WSW 0.0 1001.3
04:00 15.4 76 11.2 3.2 9.7 WSW 0.0 1001.2
04:10 15.4 76 11.2 2.9 9.7 W 0.0 1001.2
04:20 15.4 75 11.0 3.8 12.2 SW 0.0 1001.3
04:30 15.4 75 11.0 3.1 8.6 WSW 0.0 1001.4
04:40 15.4 75 11.0 2.1 7.2 SW 0.0 1001.3
04:50 15.4 75 11.0 2.0 7.2 W 0.0 1001.0
05:00 15.5 75 11.1 0.3 5.0 WSW 0.0 1000.7
05:10 15.4 75 11.0 2.3 7.2 W 0.0 1000.9
05:20 15.4 75 11.0 3.8 7.2 W 0.0 1000.8
05:30 15.4 74 10.8 1.0 6.1 SW 0.0 1000.8
05:40 15.4 74 10.8 1.4 6.1 WSW 0.0 1000.7
05:50 15.4 74 10.8 2.6 7.2 W 0.0 1001.1
06:00 15.5 74 10.9 1.8 8.6 WSW 0.0 1001.2
06:10 15.4 73 10.6 3.7 9.7 WNW 0.0 1001.3
06:20 15.4 73 10.6 1.3 9.7 W 0.0 1001.5
06:30 15.4 72 10.4 1.5 12.2 W 0.0 1001.6
06:40 15.4 72 10.4 2.0 7.2 WSW 0.0 1001.8
06:50 15.4 71 10.2 0.5 5.0 S 0.0 1001.7
07:00 15.4 72 10.4 2.2 8.6 W 0.0 1001.6
07:10 15.4 72 10.4 4.0 11.2 W 0.0 1001.8
07:20 15.4 72 10.4 3.7 7.2 WNW 0.0 1001.8
07:30 15.5 72 10.5 1.9 9.7 SW 0.0 1001.8
07:40 15.5 72 10.5 0.8 5.0 SW 0.0 1001.8
07:50 15.5 72 10.5 0.9 5.0 W 0.0 1001.9
08:00 15.6 72 10.6 0.0 2.5 WSW 0.0 1002.2
08:10 15.7 72 10.7 0.7 7.2 SSW 0.0 1002.1
08:20 15.7 73 10.9 1.7 6.1 SSW 0.0 1002.0
08:30 15.8 72 10.8 4.2 11.2 W 0.0 1001.9
08:40 15.8 71 10.6 4.7 11.2 W 0.0 1002.1
08:50 15.9 71 10.7 4.2 12.2 W 0.0 1002.1
09:00 15.9 71 10.7 4.7 9.7 WSW 0.0 1002.1
09:10 15.9 71 10.7 5.0 13.3 W 0.0 1002.3
09:20 15.9 71 10.7 4.8 12.2 WSW 0.0 1002.3
09:30 16.0 70 10.5 4.1 11.2 WSW 0.0 1002.4
09:40 16.1 70 10.6 4.2 11.2 WSW 0.0 1002.5
09:50 16.2 70 10.7 4.4 15.8 WSW 0.0 1002.6
10:00 16.2 70 10.7 3.2 11.2 W 0.0 1002.7
10:10 16.3 71 11.0 3.5 13.3 W 0.0 1002.7
10:20 16.3 71 11.0 2.5 14.8 WSW 0.0 1002.8
10:30 16.3 71 11.0 2.1 14.8 W 0.0 1002.8
10:40 16.4 71 11.1 3.0 12.2 WNW 0.0 1002.8
10:50 16.4 71 11.1 2.4 9.7 W 0.0 1002.6
11:00 16.5 71 11.2 3.1 17.3 WSW 0.0 1002.7
11:10 16.5 71 11.2 2.1 13.3 WNW 0.0 1002.7
11:20 16.6 71 11.3 3.0 9.7 WSW 0.0 1002.8
11:30 16.7 71 11.4 3.0 12.2 SW 0.0 1002.7
11:40 16.8 71 11.5 4.2 13.3 SW 0.0 1002.6
11:50 17.2 71 11.9 5.9 14.8 WSW 0.0 1002.6
12:00 17.7 70 12.2 5.8 12.2 WSW 0.0 1002.3
12:10 18.3 68 12.3 8.2 20.9 W 0.0 1002.2
12:20 18.5 67 12.3 5.2 17.3 SW 0.0 1002.0
12:30 18.6 67 12.4 8.2 19.4 WNW 0.0 1001.9
12:40 18.8 66 12.3 7.5 22.0 W 0.0 1001.9
12:50 18.8 66 12.3 6.1 18.4 WNW 0.0 1001.6
13:00 19.0 65 12.3 6.3 18.4 W 0.0 1001.6
13:10 19.2 65 12.5 4.3 14.8 SW 0.0 1001.5
13:20 19.4 64 12.4 8.1 18.4 W 0.0 1001.2
13:30 19.6 64 12.6 5.9 15.8 WNW 0.0 1001.0
13:40 20.0 63 12.8 5.9 15.8 SSW 0.0 1000.8
13:50 20.0 62 12.5 6.3 15.8 W 0.0 1000.6
14:00 20.2 62 12.7 7.3 22.0 WNW 0.0 1000.6
14:10 20.2 63 12.9 6.3 18.4 WSW 0.0 1000.4
14:20 20.4 63 13.1 5.3 13.3 W 0.0 1000.3
14:30 20.5 63 13.2 4.9 14.8 WNW 0.0 1000.1
14:40 20.5 63 13.2 6.5 15.8 WSW 0.0 999.9
14:50 20.7 63 13.4 5.3 13.3 N 0.0 999.8
15:00 20.8 63 13.5 7.5 14.8 NW 0.0 999.7
15:10 20.6 63 13.3 4.5 15.8 W 0.0 999.4
15:20 20.7 64 13.7 6.6 13.3 SW 0.0 999.2
15:30 20.9 64 13.8 5.3 15.8 WNW 0.0 999.0
15:40 21.0 63 13.7 3.6 13.3 W 0.0 998.7
15:50 20.9 64 13.8 6.0 14.8 SW 0.0 998.5
16:00 20.7 64 13.7 4.0 13.3 W 0.0 998.4
16:10 20.7 64 13.7 2.9 14.8 WSW 0.0 998.2
16:20 20.8 64 13.8 4.9 15.8 W 0.0 998.1
16:30 20.9 64 13.8 4.5 11.2 W 0.0 997.9
16:40 21.1 63 13.8 3.6 17.3 W 0.0 997.8
16:50 21.1 62 13.5 5.1 19.4 NW 0.0 997.7
17:00 21.3 63 14.0 3.0 13.3 WSW 0.0 997.6
17:10 21.3 63 14.0 6.2 14.8 SSW 0.0 997.5
17:20 21.1 64 14.0 4.0 12.2 SW 0.0 997.2
17:30 21.2 65 14.4 4.1 11.2 SW 0.0 997.3
17:40 21.3 64 14.2 2.6 13.3 SSW 0.0 997.2
17:50 21.0 65 14.2 4.0 14.8 SSW 0.0 997.1
18:00 20.4 67 14.1 1.9 13.3 W 0.0 997.1
18:10 20.4 69 14.5 2.3 9.7 SW 0.0 997.2
18:20 20.3 70 14.7 1.3 8.6 SSW 0.0 997.3
18:30 20.4 70 14.8 1.4 11.2 SSW 0.0 997.0
18:40 20.2 71 14.8 2.3 9.7 SW 0.0 996.9
18:50 20.1 72 14.9 1.5 7.2 W 0.0 997.0
19:00 20.0 73 15.0 3.0 14.8 WNW 0.0 996.9
19:10 19.9 74 15.1 3.2 9.7 WSW 0.0 996.8
19:20 19.9 74 15.1 3.7 13.3 WSW 0.0 996.8
19:30 19.9 73 14.9 2.5 13.3 SSW 0.0 996.7
19:40 19.9 73 14.9 4.2 13.3 ENE 0.0 996.8
19:50 19.6 75 15.1 3.6 13.3 W 0.0 997.0
20:00 19.4 76 15.1 4.6 17.3 SW 0.0 996.9
20:10 19.2 76 14.9 5.0 18.4 SW 0.0 997.0
20:20 19.2 76 14.9 5.4 20.9 WNW 0.0 997.1
20:30 19.1 75 14.6 5.1 13.3 WSW 0.0 997.0
20:40 19.0 75 14.5 4.5 14.8 WSW 0.0 997.2
20:50 18.9 77 14.8 5.7 15.8 WSW 0.0 997.3
21:00 18.8 77 14.7 5.4 19.4 W 0.0 997.2
21:10 18.7 77 14.6 4.7 17.3 WSW 0.0 997.4
21:20 18.7 78 14.8 6.4 19.4 WSW 0.0 997.3
21:30 18.6 78 14.7 6.9 18.4 WNW 0.0 997.6
21:40 18.6 78 14.7 5.5 15.8 W 0.0 999.1
21:50 18.6 77 14.5 5.9 15.8 NW 0.0 998.8
22:00 18.4 78 14.5 7.4 17.3 W 0.0 997.7
22:10 18.3 78 14.4 6.4 18.4 SW 0.0 997.6
22:20 18.3 78 14.4 3.5 13.3 WSW 0.0 997.9
22:30 18.2 79 14.5 6.3 15.8 SW 0.0 997.5
22:40 18.2 79 14.5 4.2 14.8 W 0.0 997.4
22:50 18.2 80 14.7 3.1 11.2 WNW 0.0 998.1
23:00 18.0 81 14.7 5.0 15.8 WSW 0.0 997.4
23:10 18.0 82 14.9 4.6 15.8 WNW 0.0 997.7
23:20 17.7 83 14.8 3.9 11.2 W 0.0 997.3
23:30 17.4 85 14.9 4.2 14.8 WSW 0.3 997.6
23:40 17.1 87 14.9 3.7 12.2 SW 0.6 997.3
23:50 17.0 89 15.2 3.7 13.3 WSW 1.5 997.6